Terminal Aerodrome Forecast
Issued by NWS

Home | Current Version | Previous Version | Text Only | Print | Product List | Glossary On
Versions: 1 2 3 4 5 6 7 8 9 10 11 12 13 14 15 16 17 18 19 20 21 22 23 24 25 26
666
FTUS43 KDLH 222329
TAFBRD
TAF
KBRD 222329Z 2300/2324 15008KT P6SM SKC
     FM230100 17010KT P6SM BKN200 WS020/19040KT
     FM230600 22008KT P6SM BKN080
     FM231200 26004KT 4SM BR BKN008
     FM231500 34004KT P6SM -SHRA OVC015=

USA.gov is the U.S. government's official web portal to all federal, state and local government web resources and services.